Time;durP1;ratioP1;P1;durP2;ratioP2;P2;SDS_P1;SDS_P2;PMS_P1;PMS_P2;Temp;Humidity;BMP_temperature;BMP_pressure;BME280_temperature;BME280_humidity;BME280_pressure;Samples;Min_cycle;Max_cycle;Signal;HPM_P1;HPM_P2
2023/09/09 00:00:24;;;;;;;6.00;5.22;;;20.70;99.90;;;;;;2519571;23;20103;-72
2023/09/09 00:01:25;;;;;;;5.63;5.15;;;20.60;99.90;;;;;;2506004;23;20011;-72
2023/09/09 00:02:25;;;;;;;5.65;5.13;;;20.60;99.90;;;;;;2506861;23;20086;-72
2023/09/09 00:03:26;;;;;;;5.80;5.22;;;20.60;99.90;;;;;;2519576;23;20305;-72
2023/09/09 00:04:26;;;;;;;6.32;5.43;;;20.60;99.90;;;;;;2519114;23;19999;-72
2023/09/09 00:05:32;;;;;;;5.78;5.28;;;20.60;99.90;;;;;;2519495;23;20379;-72
2023/09/09 00:06:33;;;;;;;8.10;5.07;;;20.60;99.90;;;;;;2506987;23;20003;-72
2023/09/09 00:07:33;;;;;;;5.40;4.88;;;20.60;99.90;;;;;;2506688;23;20030;-72
2023/09/09 00:08:34;;;;;;;6.43;4.97;;;20.60;99.90;;;;;;2519601;23;20006;-72
2023/09/09 00:09:34;;;;;;;6.47;4.97;;;20.60;99.90;;;;;;2517635;23;20010;-72
2023/09/09 00:10:36;;;;;;;7.93;5.35;;;20.60;99.90;;;;;;2518076;23;20002;-72
2023/09/09 00:11:37;;;;;;;6.25;5.22;;;20.60;99.90;;;;;;2519362;23;20576;-72
2023/09/09 00:12:37;;;;;;;6.25;4.93;;;20.60;99.90;;;;;;2518858;23;20396;-72
2023/09/09 00:13:38;;;;;;;5.60;5.10;;;20.60;99.90;;;;;;2519451;23;20066;-72
2023/09/09 00:14:38;;;;;;;6.20;5.32;;;20.60;99.90;;;;;;2519256;23;20007;-72
2023/09/09 00:15:39;;;;;;;5.68;5.18;;;20.60;99.90;;;;;;2519011;23;20014;-72
2023/09/09 00:16:39;;;;;;;6.72;5.55;;;20.60;99.90;;;;;;2506798;23;20006;-72
2023/09/09 00:17:40;;;;;;;9.23;5.05;;;20.50;99.90;;;;;;2506645;23;20009;-72
2023/09/09 00:18:40;;;;;;;4.72;4.30;;;20.60;99.90;;;;;;2506039;23;20022;-72
2023/09/09 00:19:41;;;;;;;5.75;5.20;;;20.60;99.90;;;;;;2506527;23;20014;-72
2023/09/09 00:20:42;;;;;;;6.50;5.53;;;20.60;99.90;;;;;;2519444;23;20011;-72
2023/09/09 00:21:42;;;;;;;5.93;5.32;;;20.60;99.90;;;;;;2518887;23;20334;-72
2023/09/09 00:22:43;;;;;;;5.25;4.75;;;20.60;99.90;;;;;;2519759;23;20006;-72
2023/09/09 00:23:43;;;;;;;5.97;5.30;;;20.60;99.90;;;;;;2519277;23;20007;-72
2023/09/09 00:24:44;;;;;;;7.85;5.30;;;20.50;99.90;;;;;;2517768;23;20759;-72
2023/09/09 00:25:44;;;;;;;5.93;4.93;;;20.50;99.90;;;;;;2518494;23;20006;-72
2023/09/09 00:26:45;;;;;;;6.45;4.97;;;20.50;99.90;;;;;;2519307;23;20412;-72
2023/09/09 00:27:45;;;;;;;7.72;5.32;;;20.50;99.90;;;;;;2518909;23;20071;-72
2023/09/09 00:28:46;;;;;;;6.43;4.78;;;20.50;99.90;;;;;;2519016;23;20030;-72
2023/09/09 00:29:46;;;;;;;15.40;5.60;;;20.50;99.90;;;;;;2506304;23;20526;-72
2023/09/09 00:30:47;;;;;;;5.78;5.28;;;20.50;99.90;;;;;;2506642;23;20015;-72
2023/09/09 00:31:49;;;;;;;5.50;5.00;;;20.50;99.90;;;;;;2519032;23;20350;-72
2023/09/09 00:32:50;;;;;;;6.07;5.10;;;20.50;99.90;;;;;;2518663;23;20006;-72
2023/09/09 00:33:50;;;;;;;5.30;4.90;;;20.50;99.90;;;;;;2518914;23;20007;-72
2023/09/09 00:34:52;;;;;;;8.90;5.47;;;20.50;99.90;;;;;;2519917;23;20501;-72
2023/09/09 00:35:52;;;;;;;5.30;4.72;;;20.50;99.90;;;;;;2519223;23;20009;-72
2023/09/09 00:36:53;;;;;;;5.53;4.82;;;20.50;99.90;;;;;;2519430;23;19998;-72
2023/09/09 00:37:54;;;;;;;6.00;5.05;;;20.50;99.90;;;;;;2519637;23;20014;-72
2023/09/09 00:38:55;;;;;;;6.47;5.88;;;20.50;99.90;;;;;;2518908;23;20014;-72
2023/09/09 00:39:55;;;;;;;5.15;4.70;;;20.40;99.90;;;;;;2506334;23;20030;-72
2023/09/09 00:41:13;;;;;;;5.40;4.93;;;20.40;99.90;;;;;;2506112;23;19999;-72
2023/09/09 00:42:14;;;;;;;5.35;4.85;;;20.40;99.90;;;;;;2518821;23;20002;-72
2023/09/09 00:43:14;;;;;;;5.78;5.13;;;20.40;99.90;;;;;;2519434;23;20017;-72
2023/09/09 00:44:15;;;;;;;6.72;5.18;;;20.40;99.90;;;;;;2519373;23;20512;-72
2023/09/09 00:45:16;;;;;;;6.45;5.30;;;20.40;99.90;;;;;;2519002;23;20033;-72
2023/09/09 00:46:17;;;;;;;5.30;4.80;;;20.40;99.90;;;;;;2519535;23;20062;-72
2023/09/09 00:47:18;;;;;;;5.57;4.82;;;20.40;99.90;;;;;;2518735;23;20007;-73
2023/09/09 00:48:18;;;;;;;5.57;4.93;;;20.40;99.90;;;;;;2518833;23;20003;-72
2023/09/09 00:49:20;;;;;;;6.53;5.25;;;20.40;99.90;;;;;;2519615;23;20642;-72
2023/09/09 00:50:21;;;;;;;5.93;5.35;;;20.40;99.90;;;;;;2517881;23;20790;-72
2023/09/09 00:51:22;;;;;;;10.93;5.60;;;20.40;99.90;;;;;;2519494;23;20029;-72
2023/09/09 00:52:23;;;;;;;7.80;5.28;;;20.30;99.90;;;;;;2504544;23;20393;-72
2023/09/09 00:53:25;;;;;;;6.05;5.00;;;20.40;99.90;;;;;;2506803;23;20085;-72
2023/09/09 00:54:26;;;;;;;6.03;5.38;;;20.30;99.90;;;;;;2519187;23;20081;-72
2023/09/09 00:55:27;;;;;;;5.72;5.10;;;20.30;99.90;;;;;;2518838;23;20010;-72
2023/09/09 00:56:27;;;;;;;6.82;4.93;;;20.30;99.90;;;;;;2518128;23;20021;-72
2023/09/09 00:57:28;;;;;;;5.45;4.97;;;20.30;99.90;;;;;;2518960;23;20487;-72
2023/09/09 00:58:30;;;;;;;6.20;5.30;;;20.30;99.90;;;;;;2519119;23;20041;-72
2023/09/09 00:59:31;;;;;;;5.93;5.43;;;20.30;99.90;;;;;;2518736;23;20072;-72
2023/09/09 01:00:32;;;;;;;5.65;5.15;;;20.30;99.90;;;;;;2518700;23;20061;-72
2023/09/09 01:01:32;;;;;;;6.43;5.82;;;20.20;99.90;;;;;;2519079;23;20002;-72
2023/09/09 01:02:33;;;;;;;5.75;5.22;;;20.20;99.90;;;;;;2519157;23;20060;-72
2023/09/09 01:03:34;;;;;;;6.13;5.60;;;20.30;99.90;;;;;;2517947;23;20042;-72
2023/09/09 01:04:35;;;;;;;5.80;5.30;;;20.20;99.90;;;;;;2519261;23;20045;-73
2023/09/09 01:05:38;;;;;;;5.70;5.20;;;20.20;99.90;;;;;;2518682;23;19998;-72
2023/09/09 01:06:39;;;;;;;5.95;5.32;;;20.20;99.90;;;;;;2519218;23;20033;-72
2023/09/09 01:07:48;;;;;;;6.30;5.43;;;20.20;99.90;;;;;;2519442;23;20006;-72
2023/09/09 01:08:49;;;;;;;6.28;5.57;;;20.20;99.90;;;;;;2518947;23;20648;-72
2023/09/09 01:09:49;;;;;;;7.90;5.82;;;20.20;99.90;;;;;;2518801;23;20101;-72
2023/09/09 01:10:50;;;;;;;6.00;5.38;;;20.20;99.90;;;;;;2517757;23;20011;-72
2023/09/09 01:11:50;;;;;;;5.38;4.88;;;20.20;99.90;;;;;;2519571;23;20026;-72
2023/09/09 01:12:51;;;;;;;6.00;5.30;;;20.20;99.90;;;;;;2518666;23;20348;-72
2023/09/09 01:13:51;;;;;;;6.18;5.35;;;20.20;99.90;;;;;;2519422;23;19999;-72
2023/09/09 01:14:52;;;;;;;5.85;5.22;;;20.20;99.90;;;;;;2519120;23;20065;-72
2023/09/09 01:15:53;;;;;;;6.15;5.55;;;20.10;99.90;;;;;;2519246;23;20443;-72
2023/09/09 01:16:55;;;;;;;6.07;5.53;;;20.10;99.90;;;;;;2517193;23;20026;-72
2023/09/09 01:17:56;;;;;;;8.25;5.10;;;20.10;99.90;;;;;;2519489;23;19998;-72
2023/09/09 01:18:57;;;;;;;5.53;4.88;;;20.10;99.90;;;;;;2518812;23;20065;-72
2023/09/09 01:19:59;;;;;;;5.70;5.20;;;20.10;99.90;;;;;;2505930;23;20014;-72
2023/09/09 01:21:09;;;;;;;5.85;5.35;;;20.10;99.90;;;;;;2504719;23;20011;-72
2023/09/09 01:22:17;;;;;;;6.82;5.70;;;20.10;99.90;;;;;;2518974;23;19999;-72
2023/09/09 01:23:18;;;;;;;5.93;5.38;;;20.00;99.90;;;;;;2518999;23;20073;-72
2023/09/09 01:24:19;;;;;;;6.38;4.95;;;20.00;99.90;;;;;;2518128;23;20014;-72
2023/09/09 01:25:20;;;;;;;6.20;5.10;;;20.00;99.90;;;;;;2517901;23;20010;-72
2023/09/09 01:26:21;;;;;;;7.18;5.80;;;20.00;99.90;;;;;;2518790;23;20002;-72
2023/09/09 01:27:21;;;;;;;6.05;5.45;;;20.00;99.90;;;;;;2519324;23;20009;-72
2023/09/09 01:28:22;;;;;;;6.13;5.40;;;20.00;99.90;;;;;;2518705;23;20002;-72
2023/09/09 01:29:23;;;;;;;5.38;4.93;;;20.00;99.90;;;;;;2518016;23;20006;-72
2023/09/09 01:30:23;;;;;;;6.13;5.53;;;19.90;99.90;;;;;;2517846;23;20010;-72
2023/09/09 01:31:24;;;;;;;7.25;5.55;;;19.90;99.90;;;;;;2518488;23;20002;-72
2023/09/09 01:32:25;;;;;;;6.25;5.70;;;19.90;99.90;;;;;;2519368;23;20006;-72
2023/09/09 01:33:26;;;;;;;5.85;5.35;;;19.90;99.90;;;;;;2518480;23;19998;-72
2023/09/09 01:34:26;;;;;;;5.93;5.32;;;19.90;99.90;;;;;;2518288;23;20530;-72
2023/09/09 01:35:27;;;;;;;5.55;5.07;;;19.90;99.90;;;;;;2518070;23;20034;-72
2023/09/09 01:36:27;;;;;;;6.63;5.97;;;19.90;99.90;;;;;;2519365;23;20006;-72
2023/09/09 01:37:28;;;;;;;6.70;5.93;;;19.90;99.90;;;;;;2518582;23;20735;-72
2023/09/09 01:38:28;;;;;;;7.03;5.72;;;19.90;99.90;;;;;;2518910;23;20014;-72
2023/09/09 01:39:29;;;;;;;6.40;5.80;;;19.90;99.90;;;;;;2518505;23;20433;-72
2023/09/09 01:40:29;;;;;;;6.35;5.75;;;19.90;99.90;;;;;;2505288;23;20011;-72
2023/09/09 01:41:30;;;;;;;6.30;5.70;;;19.90;99.90;;;;;;2505629;23;20013;-72
2023/09/09 01:42:31;;;;;;;7.40;6.18;;;19.80;99.90;;;;;;2506097;23;20535;-72
2023/09/09 01:43:31;;;;;;;6.03;5.32;;;19.80;99.90;;;;;;2506304;23;20017;-72
2023/09/09 01:44:32;;;;;;;6.30;5.50;;;19.80;99.90;;;;;;2518997;23;20002;-72
2023/09/09 01:45:32;;;;;;;8.77;5.95;;;19.80;99.90;;;;;;2519245;23;20006;-72
2023/09/09 01:46:33;;;;;;;8.77;6.18;;;19.80;99.90;;;;;;2518924;23;20090;-72
2023/09/09 01:47:33;;;;;;;5.28;4.85;;;19.80;99.90;;;;;;2518976;23;19998;-72
2023/09/09 01:48:34;;;;;;;5.60;5.10;;;19.80;99.90;;;;;;2506386;23;20011;-72
2023/09/09 01:49:35;;;;;;;7.30;5.57;;;19.80;99.90;;;;;;2505834;23;20007;-72
2023/09/09 01:50:35;;;;;;;7.20;5.90;;;19.80;99.90;;;;;;2518760;23;20006;-72
2023/09/09 01:51:36;;;;;;;8.48;6.13;;;19.80;99.90;;;;;;2519139;23;20009;-72
2023/09/09 01:52:36;;;;;;;5.90;5.40;;;19.80;99.90;;;;;;2518666;23;20467;-72
2023/09/09 01:53:38;;;;;;;6.15;5.65;;;19.80;99.90;;;;;;2518781;23;20018;-72
2023/09/09 01:54:39;;;;;;;5.80;5.20;;;19.80;99.90;;;;;;2518605;23;20010;-72
2023/09/09 01:55:39;;;;;;;5.93;5.20;;;19.80;99.90;;;;;;2518519;23;20015;-72
2023/09/09 01:56:40;;;;;;;6.57;5.32;;;19.80;99.90;;;;;;2519486;23;20048;-72
2023/09/09 01:57:40;;;;;;;6.22;5.63;;;19.80;99.90;;;;;;2505894;23;20630;-72
2023/09/09 01:58:41;;;;;;;5.55;5.05;;;19.70;99.90;;;;;;2506307;23;20003;-72
2023/09/09 01:59:42;;;;;;;6.13;5.53;;;19.70;99.90;;;;;;2518178;23;20014;-72
2023/09/09 02:00:42;;;;;;;6.50;5.80;;;19.70;99.90;;;;;;2518554;23;20017;-72
2023/09/09 02:01:43;;;;;;;6.57;5.38;;;19.80;99.90;;;;;;2519317;23;20439;-72
2023/09/09 02:02:43;;;;;;;6.05;5.45;;;19.70;99.90;;;;;;2518953;23;20054;-72
2023/09/09 02:03:44;;;;;;;6.65;5.97;;;19.70;99.90;;;;;;2518494;23;20015;-72
2023/09/09 02:04:45;;;;;;;6.68;6.03;;;19.70;99.90;;;;;;2519424;23;20003;-72
2023/09/09 02:05:45;;;;;;;8.15;6.03;;;19.70;99.90;;;;;;2518262;23;20007;-72
2023/09/09 02:06:46;;;;;;;6.85;6.18;;;19.70;99.90;;;;;;2519381;23;20328;-72
2023/09/09 02:07:47;;;;;;;6.60;5.60;;;19.60;99.90;;;;;;2519032;23;20005;-72
2023/09/09 02:08:47;;;;;;;6.30;5.50;;;19.60;99.90;;;;;;2518360;23;20030;-72
2023/09/09 02:09:48;;;;;;;5.30;4.82;;;19.60;99.90;;;;;;2518364;23;20100;-72
2023/09/09 02:10:50;;;;;;;5.95;5.45;;;19.60;99.90;;;;;;2518565;23;19999;-72
2023/09/09 02:11:50;;;;;;;5.97;5.47;;;19.60;99.90;;;;;;2518590;23;19998;-72
2023/09/09 02:12:51;;;;;;;6.28;5.57;;;19.60;99.90;;;;;;2519254;23;20030;-72
2023/09/09 02:13:51;;;;;;;5.78;5.28;;;19.60;99.90;;;;;;2517840;23;20008;-72
2023/09/09 02:14:52;;;;;;;6.10;5.60;;;19.60;99.90;;;;;;2518289;23;20010;-72
2023/09/09 02:16:03;;;;;;;5.72;5.13;;;19.60;99.90;;;;;;2519158;23;20002;-72
2023/09/09 02:17:03;;;;;;;6.05;5.38;;;19.60;99.90;;;;;;2518894;23;20296;-72
2023/09/09 02:18:04;;;;;;;6.45;5.53;;;19.60;99.90;;;;;;2519264;23;20125;-72
2023/09/09 02:19:05;;;;;;;6.68;6.00;;;19.60;99.90;;;;;;2519005;23;20006;-72
2023/09/09 02:20:06;;;;;;;6.32;5.72;;;19.50;99.90;;;;;;2518035;23;20030;-72
2023/09/09 02:21:07;;;;;;;6.70;5.80;;;19.50;99.90;;;;;;2519331;23;20003;-72
2023/09/09 02:22:07;;;;;;;8.38;6.00;;;19.50;99.90;;;;;;2518732;23;20093;-72
2023/09/09 02:23:10;;;;;;;6.38;5.78;;;19.50;99.90;;;;;;2517684;23;19999;-72
2023/09/09 02:24:10;;;;;;;6.60;5.82;;;19.50;99.90;;;;;;2518474;23;20002;-72
2023/09/09 02:25:11;;;;;;;6.15;5.55;;;19.50;99.90;;;;;;2517726;23;20010;-73
2023/09/09 02:26:11;;;;;;;6.43;5.80;;;19.50;99.90;;;;;;2517494;23;20085;-72
2023/09/09 02:27:12;;;;;;;7.00;5.82;;;19.50;99.90;;;;;;2518978;23;19998;-72
2023/09/09 02:28:13;;;;;;;5.88;5.38;;;19.50;99.90;;;;;;2518753;23;19999;-72
2023/09/09 02:29:14;;;;;;;6.10;5.60;;;19.40;99.90;;;;;;2518643;23;19994;-72
2023/09/09 02:30:14;;;;;;;6.28;5.70;;;19.50;99.90;;;;;;2517836;23;20082;-72
2023/09/09 02:31:15;;;;;;;7.32;5.25;;;19.40;99.90;;;;;;2519062;23;20674;-72
2023/09/09 02:32:19;;;;;;;7.22;5.75;;;19.40;99.90;;;;;;2518515;23;20006;-72
2023/09/09 02:33:19;;;;;;;6.43;5.93;;;19.40;99.90;;;;;;2518669;23;20069;-72
2023/09/09 02:34:20;;;;;;;6.65;5.70;;;19.40;99.90;;;;;;2519139;23;20096;-72
2023/09/09 02:35:21;;;;;;;6.22;5.68;;;19.40;99.90;;;;;;2518620;23;20007;-72
2023/09/09 02:36:21;;;;;;;6.82;5.70;;;19.40;99.90;;;;;;2519044;23;20339;-72
2023/09/09 02:37:24;;;;;;;5.82;5.32;;;19.40;99.90;;;;;;2518466;23;20006;-72
2023/09/09 02:38:24;;;;;;;7.35;6.15;;;19.40;99.90;;;;;;2516218;23;20006;-72
2023/09/09 02:39:25;;;;;;;7.20;6.18;;;19.40;99.90;;;;;;2519120;23;20012;-72
2023/09/09 02:40:26;;;;;;;7.10;5.55;;;19.30;99.90;;;;;;2504977;23;20416;-72
2023/09/09 02:41:27;;;;;;;6.57;6.00;;;19.40;99.90;;;;;;2505897;23;20031;-72
2023/09/09 02:42:27;;;;;;;5.80;5.30;;;19.30;99.90;;;;;;2518881;23;20074;-72
2023/09/09 02:43:28;;;;;;;5.63;5.13;;;19.30;99.90;;;;;;2518844;23;20018;-72
2023/09/09 02:44:28;;;;;;;8.38;6.13;;;19.30;99.90;;;;;;2518967;23;20431;-72
2023/09/09 02:45:29;;;;;;;6.90;5.55;;;19.30;99.90;;;;;;2505966;23;20054;-72
2023/09/09 02:46:30;;;;;;;7.30;6.25;;;19.30;99.90;;;;;;2506089;23;20037;-72
2023/09/09 02:47:30;;;;;;;7.80;5.65;;;19.30;99.90;;;;;;2518930;23;20600;-72
2023/09/09 02:48:31;;;;;;;6.85;5.95;;;19.30;99.90;;;;;;2518831;23;20011;-72
2023/09/09 02:49:31;;;;;;;6.32;5.72;;;19.30;99.90;;;;;;2505984;23;20007;-72
2023/09/09 02:50:33;;;;;;;6.72;6.07;;;19.30;99.90;;;;;;2505765;23;20007;-72
2023/09/09 02:51:34;;;;;;;6.95;6.28;;;19.30;99.90;;;;;;2518422;23;20444;-72
2023/09/09 02:52:34;;;;;;;7.57;5.82;;;19.20;99.90;;;;;;2519232;23;20010;-72
2023/09/09 02:53:35;;;;;;;6.53;5.95;;;19.20;99.90;;;;;;2518516;23;20002;-72
2023/09/09 02:54:37;;;;;;;8.25;6.70;;;19.20;99.90;;;;;;2518597;23;20377;-72
2023/09/09 02:55:37;;;;;;;5.82;5.32;;;19.20;99.90;;;;;;2519146;23;20045;-72
2023/09/09 02:56:38;;;;;;;7.85;5.65;;;19.20;99.90;;;;;;2517916;23;20074;-72
2023/09/09 02:57:38;;;;;;;6.65;5.93;;;19.20;99.90;;;;;;2519641;23;20002;-72
2023/09/09 02:58:39;;;;;;;7.07;6.47;;;19.20;99.90;;;;;;2518643;23;20490;-72
2023/09/09 02:59:39;;;;;;;5.93;5.32;;;19.20;99.90;;;;;;2518348;23;20015;-72
2023/09/09 03:00:40;;;;;;;6.35;5.82;;;19.10;99.90;;;;;;2505876;23;20007;-72
2023/09/09 03:01:40;;;;;;;6.47;5.47;;;19.10;99.90;;;;;;2506613;23;20014;-72
2023/09/09 03:02:44;;;;;;;6.22;5.70;;;19.10;99.90;;;;;;2517995;23;20022;-72
2023/09/09 03:03:44;;;;;;;6.30;5.70;;;19.10;99.90;;;;;;2518940;23;20073;-72
2023/09/09 03:04:46;;;;;;;7.10;6.40;;;19.10;99.90;;;;;;2518221;23;20065;-72
2023/09/09 03:05:46;;;;;;;6.72;5.75;;;19.10;99.90;;;;;;2518791;23;20110;-72
2023/09/09 03:06:47;;;;;;;7.20;6.50;;;19.10;99.90;;;;;;2518397;23;20077;-72
2023/09/09 03:07:48;;;;;;;6.93;6.00;;;19.00;99.90;;;;;;2519348;23;20003;-72
2023/09/09 03:08:48;;;;;;;6.95;6.35;;;19.00;99.90;;;;;;2518281;23;20065;-72
2023/09/09 03:09:49;;;;;;;6.50;5.90;;;19.00;99.90;;;;;;2518866;23;20037;-72
2023/09/09 03:10:52;;;;;;;6.57;5.97;;;19.00;99.90;;;;;;2518894;23;20493;-72
2023/09/09 03:11:54;;;;;;;8.05;6.75;;;19.00;99.90;;;;;;2518919;23;20010;-72
2023/09/09 03:12:56;;;;;;;6.63;5.70;;;19.00;99.90;;;;;;2518407;23;20445;-72
2023/09/09 03:13:57;;;;;;;6.22;5.72;;;19.00;99.90;;;;;;2519312;23;20003;-72
2023/09/09 03:14:58;;;;;;;6.75;6.10;;;19.00;99.90;;;;;;2518619;23;19999;-72
2023/09/09 03:15:58;;;;;;;6.50;5.88;;;19.00;99.90;;;;;;2519252;23;20006;-72
2023/09/09 03:16:59;;;;;;;8.15;6.00;;;19.00;99.90;;;;;;2518681;23;20422;-72
2023/09/09 03:17:59;;;;;;;6.18;5.57;;;19.00;99.90;;;;;;2518797;23;20419;-72
2023/09/09 03:19:00;;;;;;;6.10;5.50;;;19.00;99.90;;;;;;2518835;23;20077;-72
2023/09/09 03:20:00;;;;;;;6.13;5.57;;;19.00;99.90;;;;;;2505675;23;20011;-72
2023/09/09 03:21:02;;;;;;;7.13;5.70;;;19.00;99.90;;;;;;2505144;23;20010;-72
2023/09/09 03:22:02;;;;;;;6.43;5.70;;;18.90;99.90;;;;;;2519519;23;20007;-72
2023/09/09 03:23:03;;;;;;;7.32;5.95;;;18.90;99.90;;;;;;2505207;23;20014;-72
2023/09/09 03:24:04;;;;;;;6.60;5.93;;;18.90;99.90;;;;;;2506186;23;20600;-72
2023/09/09 03:25:05;;;;;;;6.32;5.82;;;18.90;99.90;;;;;;2517919;23;20703;-72
2023/09/09 03:26:06;;;;;;;7.63;6.05;;;18.90;99.90;;;;;;2518637;23;20008;-72
2023/09/09 03:27:07;;;;;;;6.80;6.20;;;18.80;99.90;;;;;;2518231;23;19998;-72
2023/09/09 03:28:07;;;;;;;6.53;5.93;;;18.90;99.90;;;;;;2518607;23;20025;-72
2023/09/09 03:29:08;;;;;;;6.50;5.88;;;18.80;99.90;;;;;;2518804;23;19998;-72
2023/09/09 03:30:09;;;;;;;6.57;5.97;;;18.80;99.90;;;;;;2517816;23;19998;-72
2023/09/09 03:31:09;;;;;;;7.07;5.70;;;18.80;99.90;;;;;;2519044;23;20450;-72
2023/09/09 03:32:10;;;;;;;6.38;5.88;;;18.80;99.90;;;;;;2519066;23;20101;-72
2023/09/09 03:33:10;;;;;;;6.18;5.20;;;18.80;99.90;;;;;;2518734;23;20002;-72
2023/09/09 03:34:11;;;;;;;6.95;5.90;;;18.80;99.90;;;;;;2518652;23;20014;-72
2023/09/09 03:35:12;;;;;;;6.88;6.05;;;18.80;99.90;;;;;;2517776;23;19998;-72
2023/09/09 03:36:13;;;;;;;6.82;6.13;;;18.80;99.90;;;;;;2518967;23;20013;-73
2023/09/09 03:37:13;;;;;;;7.88;6.13;;;18.80;99.90;;;;;;2518575;23;20002;-72
2023/09/09 03:38:14;;;;;;;5.95;5.45;;;18.80;99.90;;;;;;2518880;23;20053;-72
2023/09/09 03:39:14;;;;;;;7.15;6.45;;;18.80;99.90;;;;;;2518035;23;20499;-72
2023/09/09 03:40:15;;;;;;;6.95;5.90;;;18.80;99.90;;;;;;2517812;23;20007;-72
2023/09/09 03:41:15;;;;;;;6.00;5.40;;;18.70;99.90;;;;;;2518072;23;20002;-72
2023/09/09 03:42:16;;;;;;;6.40;5.80;;;18.70;99.90;;;;;;2518304;23;20002;-72
2023/09/09 03:43:17;;;;;;;8.57;6.47;;;18.70;99.90;;;;;;2518915;23;20782;-72
2023/09/09 03:44:17;;;;;;;6.68;6.07;;;18.70;99.90;;;;;;2518690;23;20011;-72
2023/09/09 03:45:18;;;;;;;8.98;6.00;;;18.70;99.90;;;;;;2518795;23;20034;-72
2023/09/09 03:46:18;;;;;;;6.60;6.00;;;18.70;99.90;;;;;;2518730;23;20050;-72
2023/09/09 03:47:21;;;;;;;6.20;5.70;;;18.70;99.90;;;;;;2506200;23;20010;-72
2023/09/09 03:48:22;;;;;;;6.40;5.90;;;18.70;99.90;;;;;;2506967;23;20057;-72
2023/09/09 03:49:23;;;;;;;6.60;5.70;;;18.70;99.90;;;;;;2518983;23;20417;-72
2023/09/09 03:50:23;;;;;;;6.45;5.85;;;18.70;99.90;;;;;;2519494;23;20135;-72
2023/09/09 03:51:24;;;;;;;6.30;5.70;;;18.70;99.90;;;;;;2519628;23;20006;-72
2023/09/09 03:52:25;;;;;;;5.93;5.43;;;18.60;99.90;;;;;;2519477;23;20050;-72
2023/09/09 03:53:25;;;;;;;7.45;5.88;;;18.60;99.90;;;;;;2519627;23;20006;-72
2023/09/09 03:54:26;;;;;;;6.18;5.68;;;18.60;99.90;;;;;;2519626;23;20446;-73
2023/09/09 03:55:27;;;;;;;6.05;5.50;;;18.60;99.90;;;;;;2519241;23;20015;-72
2023/09/09 03:56:27;;;;;;;6.32;5.78;;;18.60;99.90;;;;;;2519780;23;20374;-72
2023/09/09 03:57:28;;;;;;;7.22;5.70;;;18.60;99.90;;;;;;2518830;23;20018;-72
2023/09/09 03:58:28;;;;;;;9.35;6.20;;;18.60;99.90;;;;;;2519754;23;20036;-72
2023/09/09 03:59:31;;;;;;;6.25;5.65;;;18.60;99.90;;;;;;2518367;23;20006;-72
2023/09/09 04:00:31;;;;;;;7.18;6.18;;;18.60;99.90;;;;;;2519386;23;20013;-72
2023/09/09 04:01:32;;;;;;;6.72;6.13;;;18.60;99.90;;;;;;2519361;23;20010;-72
2023/09/09 04:02:33;;;;;;;6.15;5.53;;;18.50;99.90;;;;;;2519426;23;20061;-72
2023/09/09 04:03:34;;;;;;;6.60;5.95;;;18.50;99.90;;;;;;2518943;23;20058;-72
2023/09/09 04:04:35;;;;;;;7.05;5.75;;;18.50;99.90;;;;;;2519028;23;20010;-72
2023/09/09 04:05:35;;;;;;;6.00;5.50;;;18.50;99.90;;;;;;2517271;23;20038;-72
2023/09/09 04:06:36;;;;;;;6.28;5.68;;;18.50;99.90;;;;;;2507364;23;20007;-72
2023/09/09 04:07:37;;;;;;;6.03;5.50;;;18.50;99.90;;;;;;2519602;23;20002;-72
2023/09/09 04:08:38;;;;;;;6.05;5.55;;;18.50;99.90;;;;;;2519314;23;20014;-72
2023/09/09 04:09:40;;;;;;;6.15;5.65;;;18.50;99.90;;;;;;2519042;23;20712;-72
2023/09/09 04:10:41;;;;;;;6.07;5.53;;;18.50;99.90;;;;;;2519374;23;20442;-72
2023/09/09 04:11:41;;;;;;;6.30;5.70;;;18.50;99.90;;;;;;2519463;23;20311;-72
2023/09/09 04:12:42;;;;;;;6.50;5.90;;;18.50;99.90;;;;;;2505490;23;20094;-72
2023/09/09 04:13:43;;;;;;;6.95;6.22;;;18.50;99.90;;;;;;2506862;23;20010;-72
2023/09/09 04:14:43;;;;;;;6.70;6.03;;;18.40;99.90;;;;;;2519671;23;20030;-72
2023/09/09 04:15:44;;;;;;;6.80;6.20;;;18.40;99.90;;;;;;2518937;23;20017;-72
2023/09/09 04:16:44;;;;;;;6.57;5.78;;;18.40;99.90;;;;;;2519617;23;20053;-72
2023/09/09 04:17:45;;;;;;;7.75;5.60;;;18.40;99.90;;;;;;2518837;23;20449;-73
2023/09/09 04:18:45;;;;;;;7.22;6.30;;;18.40;99.90;;;;;;2519817;23;20522;-72
2023/09/09 04:19:46;;;;;;;6.78;6.15;;;18.40;99.90;;;;;;2518959;23;20302;-72
2023/09/09 04:20:47;;;;;;;9.45;6.47;;;18.40;99.90;;;;;;2519567;23;20007;-72
2023/09/09 04:21:49;;;;;;;7.35;6.10;;;18.40;99.90;;;;;;2519568;23;20018;-72
2023/09/09 04:22:50;;;;;;;5.75;5.25;;;18.40;99.90;;;;;;2519035;23;20006;-72
2023/09/09 04:23:50;;;;;;;5.82;5.32;;;18.40;99.90;;;;;;2506458;23;20454;-72
2023/09/09 04:24:53;;;;;;;9.32;5.90;;;18.40;99.90;;;;;;2506148;23;20015;-72
2023/09/09 04:25:54;;;;;;;6.35;5.75;;;18.40;99.90;;;;;;2507428;23;20372;-72
2023/09/09 04:26:54;;;;;;;7.43;5.35;;;18.40;99.90;;;;;;2507867;23;20062;-72
2023/09/09 04:27:55;;;;;;;6.90;6.00;;;18.40;99.90;;;;;;2506476;23;20003;-72
2023/09/09 04:28:56;;;;;;;7.35;5.53;;;18.30;99.90;;;;;;2507430;23;20006;-72
2023/09/09 04:29:56;;;;;;;6.13;5.53;;;18.30;99.90;;;;;;2494088;23;20010;-72
2023/09/09 04:30:57;;;;;;;6.75;5.32;;;18.30;99.90;;;;;;2494652;23;20019;-72
2023/09/09 04:31:58;;;;;;;7.00;6.32;;;18.30;99.90;;;;;;2507137;23;20018;-72
2023/09/09 04:32:59;;;;;;;7.45;6.03;;;18.30;99.90;;;;;;2507776;23;19999;-72
2023/09/09 04:33:59;;;;;;;8.25;6.22;;;18.30;99.90;;;;;;2506877;23;19999;-72
2023/09/09 04:35:00;;;;;;;6.75;6.13;;;18.30;99.90;;;;;;2506543;23;20033;-72
2023/09/09 04:36:00;;;;;;;6.53;5.88;;;18.30;99.90;;;;;;2507210;23;20028;-72
2023/09/09 04:37:03;;;;;;;6.35;5.60;;;18.30;99.90;;;;;;2507645;23;19995;-72
2023/09/09 04:38:03;;;;;;;6.30;5.70;;;18.30;99.90;;;;;;2507505;23;19999;-72
2023/09/09 04:39:04;;;;;;;6.70;6.05;;;18.30;99.90;;;;;;2506963;23;20070;-72
2023/09/09 04:40:06;;;;;;;6.60;6.00;;;18.20;99.90;;;;;;2506523;23;20092;-72
2023/09/09 04:41:06;;;;;;;6.18;5.68;;;18.20;99.90;;;;;;2507309;23;20565;-72
2023/09/09 04:42:07;;;;;;;6.63;6.03;;;18.20;99.90;;;;;;2506808;23;20003;-72
2023/09/09 04:43:07;;;;;;;6.60;5.63;;;18.20;99.90;;;;;;2507170;23;20003;-72
2023/09/09 04:44:09;;;;;;;5.90;5.40;;;18.30;99.90;;;;;;2506912;23;20007;-72
2023/09/09 04:45:09;;;;;;;5.63;5.07;;;18.20;99.90;;;;;;2505754;23;20006;-72
2023/09/09 04:46:10;;;;;;;6.32;5.82;;;18.20;99.90;;;;;;2506020;23;20087;-72
2023/09/09 04:47:11;;;;;;;8.95;5.95;;;18.20;99.90;;;;;;2506204;23;20027;-72
2023/09/09 04:48:11;;;;;;;6.68;6.05;;;18.20;99.90;;;;;;2506421;23;20086;-72
2023/09/09 04:49:12;;;;;;;6.35;5.75;;;18.20;99.90;;;;;;2506701;23;20002;-72
2023/09/09 04:50:13;;;;;;;6.90;6.22;;;18.20;99.90;;;;;;2506537;23;20075;-72
2023/09/09 04:51:13;;;;;;;7.13;6.43;;;18.20;99.90;;;;;;2507586;23;20070;-72
2023/09/09 04:52:14;;;;;;;8.23;5.90;;;18.20;99.90;;;;;;2507371;23;20442;-72
2023/09/09 04:53:14;;;;;;;5.93;5.32;;;18.20;99.90;;;;;;2507011;23;20007;-72
2023/09/09 04:54:15;;;;;;;6.97;6.22;;;18.20;99.90;;;;;;2507302;23;20380;-72
2023/09/09 04:55:16;;;;;;;6.10;5.60;;;18.20;99.90;;;;;;2507273;23;20009;-72
2023/09/09 04:56:16;;;;;;;7.63;5.90;;;18.20;99.90;;;;;;2493597;23;20015;-72
2023/09/09 04:57:17;;;;;;;7.97;6.70;;;18.20;99.90;;;;;;2494425;23;20381;-72
2023/09/09 04:58:17;;;;;;;6.45;5.88;;;18.10;99.90;;;;;;2506683;23;20709;-72
2023/09/09 04:59:18;;;;;;;6.78;5.78;;;18.10;99.90;;;;;;2506325;23;20007;-72
2023/09/09 05:00:19;;;;;;;6.78;6.10;;;18.20;99.90;;;;;;2506399;23;20007;-72
2023/09/09 05:01:19;;;;;;;10.98;6.70;;;18.20;99.90;;;;;;2506813;23;20427;-72
2023/09/09 05:02:21;;;;;;;8.68;5.90;;;18.10;99.90;;;;;;2507294;23;20077;-72
2023/09/09 05:03:21;;;;;;;6.28;5.57;;;18.10;99.90;;;;;;2507625;23;20328;-72
2023/09/09 05:04:22;;;;;;;7.68;6.70;;;18.10;99.90;;;;;;2506870;23;20022;-72
2023/09/09 05:05:23;;;;;;;7.95;7.15;;;18.20;99.90;;;;;;2507303;23;20022;-72
2023/09/09 05:06:23;;;;;;;6.60;6.00;;;18.10;99.90;;;;;;2507162;23;20563;-72
2023/09/09 05:07:24;;;;;;;7.10;6.05;;;18.10;99.90;;;;;;2494677;23;20344;-72
2023/09/09 05:08:24;;;;;;;6.53;5.93;;;18.10;99.90;;;;;;2494908;23;20764;-72
2023/09/09 05:09:25;;;;;;;7.00;6.30;;;18.10;99.90;;;;;;2507141;23;20013;-72
2023/09/09 05:10:27;;;;;;;6.80;6.18;;;18.10;99.90;;;;;;2506227;23;20058;-72
2023/09/09 05:11:27;;;;;;;6.38;5.78;;;18.10;99.90;;;;;;2507150;23;20495;-72
2023/09/09 05:12:28;;;;;;;6.25;5.65;;;18.10;99.90;;;;;;2506675;23;20313;-72
2023/09/09 05:13:28;;;;;;;11.73;6.18;;;18.10;99.90;;;;;;2507066;23;20491;-72
2023/09/09 05:14:29;;;;;;;6.88;6.18;;;18.10;99.90;;;;;;2506023;23;20085;-72
2023/09/09 05:15:29;;;;;;;6.13;5.63;;;18.10;99.90;;;;;;2507459;23;20011;-72
2023/09/09 05:16:30;;;;;;;6.88;6.18;;;18.10;99.90;;;;;;2506332;23;20011;-72